Sign in

Links

Info

Aviation weather - KDAB

METAR KDAB 180453Z 21005KT 9SM FEW010 FEW250 26/25 A3004 RMK AO2 SLP172 T02560250 403390244

TAF KDAB 172342Z 1800/1824 20004KT P6SM FEW030 FEW110 SCT200 FM181400 VRB05KT P6SM SCT025 FM182000 14007KT P6SM VCTS SCT040CB

Aviation weather from ADDS. Re-check weather before flight.

-